createdAt,value
2017-11-28T00:00:32.723Z,0.00
2017-11-28T00:02:26.089Z,0.00
2017-11-28T00:03:26.092Z,0.00
2017-11-28T00:05:19.495Z,0.00
2017-11-28T00:06:19.471Z,0.00
2017-11-28T00:08:12.851Z,0.00
2017-11-28T00:09:12.859Z,0.00
2017-11-28T00:11:06.267Z,0.00
2017-11-28T00:12:06.247Z,0.00
2017-11-28T00:13:59.635Z,0.00
2017-11-28T00:14:59.669Z,0.00
2017-11-28T00:16:53.048Z,0.00
2017-11-28T00:17:53.013Z,0.00
2017-11-28T00:19:46.391Z,0.00
2017-11-28T00:20:46.387Z,0.00
2017-11-28T00:22:39.797Z,0.00
2017-11-28T00:23:39.787Z,0.00
2017-11-28T00:25:33.155Z,0.00
2017-11-28T00:26:33.168Z,0.00
2017-11-28T00:28:26.575Z,0.00
2017-11-28T00:29:26.556Z,0.00
2017-11-28T00:31:19.922Z,0.00
2017-11-28T00:32:19.942Z,0.00
2017-11-28T00:34:13.332Z,0.00
2017-11-28T00:35:13.313Z,0.00
2017-11-28T00:37:06.708Z,0.00
2017-11-28T00:38:06.695Z,0.00
2017-11-28T00:40:00.071Z,0.00
2017-11-28T00:41:00.077Z,0.00
2017-11-28T00:42:53.478Z,0.00
2017-11-28T00:43:53.462Z,0.00
2017-11-28T00:45:46.826Z,0.00
2017-11-28T00:46:46.825Z,0.00
2017-11-28T00:48:40.277Z,0.00
2017-11-28T00:49:40.264Z,0.00
2017-11-28T00:51:33.628Z,0.00
2017-11-28T00:52:33.627Z,0.00
2017-11-28T00:54:27.037Z,0.00
2017-11-28T00:55:27.013Z,0.00
2017-11-28T00:57:20.397Z,0.00
2017-11-28T00:58:20.392Z,0.00
2017-11-28T01:00:13.788Z,0.00
2017-11-28T01:01:13.787Z,0.00
2017-11-28T01:03:07.158Z,0.00
2017-11-28T01:04:07.153Z,0.00
2017-11-28T01:06:00.552Z,0.00
2017-11-28T01:07:00.540Z,0.00
2017-11-28T01:08:53.909Z,0.00
2017-11-28T01:09:53.913Z,0.00
2017-11-28T01:11:47.314Z,0.00
2017-11-28T01:12:47.305Z,0.00
2017-11-28T01:14:40.673Z,0.00
2017-11-28T01:15:40.676Z,0.00
2017-11-28T01:17:34.077Z,0.00
2017-11-28T01:18:34.061Z,0.00
2017-11-28T01:20:27.442Z,0.00
2017-11-28T01:21:27.439Z,0.00
2017-11-28T01:23:20.833Z,0.00
2017-11-28T01:24:20.823Z,0.00
2017-11-28T01:26:14.207Z,0.00
2017-11-28T01:27:14.216Z,0.00
2017-11-28T01:29:07.612Z,0.00
2017-11-28T01:30:07.590Z,0.00
2017-11-28T01:32:01.996Z,0.00
2017-11-28T01:33:01.968Z,0.00
2017-11-28T01:34:55.349Z,0.00
2017-11-28T01:35:55.372Z,0.00
2017-11-28T01:37:48.747Z,0.00
2017-11-28T01:38:48.728Z,0.00
2017-11-28T01:40:42.115Z,0.00
2017-11-28T01:41:42.113Z,0.00
2017-11-28T01:43:35.526Z,0.00
2017-11-28T01:44:35.491Z,0.00
2017-11-28T01:46:28.878Z,0.00
2017-11-28T01:47:28.887Z,0.00
2017-11-28T01:49:22.281Z,0.00
2017-11-28T01:50:22.263Z,0.00
2017-11-28T01:52:15.649Z,0.00
2017-11-28T01:53:15.647Z,0.00
2017-11-28T01:55:09.045Z,0.00
2017-11-28T01:56:09.025Z,0.00
2017-11-28T01:58:02.407Z,0.00
2017-11-28T01:59:02.413Z,0.00
2017-11-28T02:00:55.807Z,0.00
2017-11-28T02:01:55.793Z,0.00
2017-11-28T02:03:49.185Z,0.00
2017-11-28T02:04:49.179Z,0.00
2017-11-28T02:06:42.548Z,0.00
2017-11-28T02:07:42.550Z,0.00
2017-11-28T02:09:35.956Z,0.00
2017-11-28T02:10:35.949Z,0.00
2017-11-28T02:12:29.312Z,0.00
2017-11-28T02:13:29.317Z,0.00
2017-11-28T02:15:22.720Z,0.00
2017-11-28T02:16:22.701Z,0.00
2017-11-28T02:18:16.080Z,0.00
2017-11-28T02:19:16.086Z,0.00
2017-11-28T02:21:09.471Z,0.00
2017-11-28T02:22:09.463Z,0.00
2017-11-28T02:24:02.869Z,0.00
2017-11-28T02:25:02.853Z,0.00
2017-11-28T02:26:56.215Z,0.00
2017-11-28T02:27:56.217Z,0.00
2017-11-28T02:29:49.634Z,0.00
2017-11-28T02:30:49.605Z,0.00
2017-11-28T02:32:42.978Z,0.00
2017-11-28T02:33:42.988Z,0.00
2017-11-28T02:35:36.384Z,0.00
2017-11-28T02:36:36.363Z,0.00
2017-11-28T02:38:29.752Z,0.00
2017-11-28T02:39:29.751Z,0.00
2017-11-28T02:41:23.161Z,0.00
2017-11-28T02:42:23.151Z,0.00
2017-11-28T02:44:16.510Z,0.00
2017-11-28T02:45:16.515Z,0.00
2017-11-28T02:47:09.910Z,0.00
2017-11-28T02:48:09.890Z,0.00
2017-11-28T02:50:03.274Z,0.00
2017-11-28T02:51:03.286Z,0.00
2017-11-28T02:52:56.676Z,0.00
2017-11-28T02:53:56.677Z,0.00
2017-11-28T02:55:50.033Z,0.00
2017-11-28T02:56:50.042Z,0.00
2017-11-28T02:58:43.439Z,0.00
2017-11-28T02:59:43.418Z,0.00
2017-11-28T03:01:36.805Z,0.00
2017-11-28T03:02:36.809Z,0.00
2017-11-28T03:04:30.209Z,0.00
2017-11-28T03:05:30.191Z,0.00
2017-11-28T03:07:23.573Z,0.00
2017-11-28T03:08:23.574Z,0.00
2017-11-28T03:10:16.972Z,0.00
2017-11-28T03:11:16.953Z,0.00
2017-11-28T03:13:10.359Z,0.00
2017-11-28T03:14:10.338Z,0.00
2017-11-28T03:16:03.742Z,0.00
2017-11-28T03:17:03.733Z,0.00
2017-11-28T03:18:57.094Z,0.00
2017-11-28T03:19:57.126Z,0.00
2017-11-28T03:21:50.501Z,0.00
2017-11-28T03:22:50.480Z,0.00
2017-11-28T03:24:43.868Z,0.00
2017-11-28T03:25:43.884Z,0.00
2017-11-28T03:27:37.265Z,0.00
2017-11-28T03:28:37.268Z,0.00
2017-11-28T03:30:30.665Z,0.00
2017-11-28T03:31:30.625Z,0.00
2017-11-28T03:33:24.005Z,0.00
2017-11-28T03:34:24.004Z,0.00
2017-11-28T03:36:17.411Z,0.00
2017-11-28T03:37:17.386Z,0.00
2017-11-28T03:39:10.770Z,0.00
2017-11-28T03:40:10.770Z,0.00
2017-11-28T03:42:04.167Z,0.00
2017-11-28T03:43:04.154Z,0.00
2017-11-28T03:44:57.533Z,0.00
2017-11-28T03:45:57.532Z,0.00
2017-11-28T03:47:50.925Z,0.00
2017-11-28T03:48:50.910Z,0.00
2017-11-28T03:50:44.293Z,0.00
2017-11-28T03:51:44.311Z,0.00
2017-11-28T03:53:37.698Z,0.00
2017-11-28T03:54:37.697Z,0.00
2017-11-28T03:56:31.073Z,0.00
2017-11-28T03:57:31.060Z,0.00
2017-11-28T03:59:24.443Z,0.00
2017-11-28T04:00:24.442Z,0.00
2017-11-28T04:02:17.859Z,0.00
2017-11-28T04:03:17.816Z,0.00
2017-11-28T04:05:11.196Z,0.00
2017-11-28T04:06:11.195Z,0.00
2017-11-28T04:08:04.595Z,0.00
2017-11-28T04:09:04.579Z,0.00
2017-11-28T04:10:57.964Z,0.00
2017-11-28T04:11:57.957Z,0.00
2017-11-28T04:13:51.361Z,0.00
2017-11-28T04:14:51.352Z,0.00
2017-11-28T04:16:44.739Z,0.00
2017-11-28T04:17:44.725Z,0.00
2017-11-28T04:19:38.107Z,0.00
2017-11-28T04:20:38.122Z,0.00
2017-11-28T04:22:31.516Z,0.00
2017-11-28T04:23:31.493Z,0.00
2017-11-28T04:25:24.874Z,0.00
2017-11-28T04:26:24.885Z,0.00
2017-11-28T04:28:18.283Z,0.00
2017-11-28T04:29:18.263Z,0.00
2017-11-28T04:31:11.640Z,0.00
2017-11-28T04:32:11.656Z,0.00
2017-11-28T04:34:05.051Z,0.00
2017-11-28T04:35:05.037Z,0.00
2017-11-28T04:36:58.465Z,0.00
2017-11-28T04:37:58.439Z,0.00
2017-11-28T04:39:51.802Z,0.00
2017-11-28T04:40:51.792Z,0.00
2017-11-28T04:42:45.194Z,0.00
2017-11-28T04:43:45.185Z,0.00
2017-11-28T04:45:38.573Z,0.00
2017-11-28T04:46:38.589Z,0.00
2017-11-28T04:48:31.960Z,0.00
2017-11-28T04:49:31.948Z,0.00
2017-11-28T04:51:25.327Z,0.00
2017-11-28T04:52:25.323Z,0.00
2017-11-28T04:54:18.729Z,0.00
2017-11-28T04:55:18.721Z,0.00
2017-11-28T04:57:12.084Z,0.00
2017-11-28T04:58:12.085Z,0.00
2017-11-28T05:00:05.514Z,0.00
2017-11-28T05:01:05.465Z,0.00
2017-11-28T05:02:58.845Z,0.00
2017-11-28T05:03:58.847Z,0.00
2017-11-28T05:05:52.276Z,0.00
2017-11-28T05:06:52.306Z,0.00
2017-11-28T05:08:45.717Z,0.00
2017-11-28T05:09:45.644Z,0.00
2017-11-28T05:11:39.047Z,0.00
2017-11-28T05:12:39.025Z,0.00
2017-11-28T05:14:32.464Z,0.00
2017-11-28T05:15:32.438Z,0.00
2017-11-28T05:17:25.810Z,0.00
2017-11-28T05:18:25.834Z,0.00
2017-11-28T05:20:19.201Z,0.00
2017-11-28T05:21:19.323Z,0.00
2017-11-28T05:23:12.562Z,0.00
2017-11-28T05:24:12.563Z,0.00
2017-11-28T05:26:06.057Z,0.00
2017-11-28T05:27:06.005Z,0.00
2017-11-28T05:28:59.504Z,0.00
2017-11-28T05:29:59.525Z,0.00
2017-11-28T05:31:52.913Z,0.00
2017-11-28T05:32:52.853Z,0.00
2017-11-28T05:34:46.302Z,0.00
2017-11-28T05:35:46.322Z,0.00
2017-11-28T05:37:39.713Z,0.00
2017-11-28T05:38:39.640Z,0.00
2017-11-28T05:40:33.003Z,0.00
2017-11-28T05:41:33.040Z,0.00
2017-11-28T05:43:26.416Z,0.00
2017-11-28T05:44:26.395Z,0.00
2017-11-28T05:46:19.752Z,0.00
2017-11-28T05:47:19.806Z,0.00
2017-11-28T05:49:13.145Z,0.00
2017-11-28T05:50:13.128Z,0.00
2017-11-28T05:52:06.552Z,0.00
2017-11-28T05:53:06.569Z,0.00
2017-11-28T05:54:59.943Z,0.00
2017-11-28T05:55:59.921Z,0.00
2017-11-28T05:57:53.281Z,0.00
2017-11-28T05:58:53.311Z,0.00
2017-11-28T06:00:46.676Z,0.00
2017-11-28T06:01:46.666Z,0.00
2017-11-28T06:03:40.105Z,0.00
2017-11-28T06:04:40.141Z,0.00
2017-11-28T06:06:33.428Z,0.00
2017-11-28T06:07:33.425Z,0.00
2017-11-28T06:09:26.825Z,0.00
2017-11-28T06:10:26.838Z,0.00
2017-11-28T06:12:20.306Z,0.00
2017-11-28T06:13:20.250Z,0.00
2017-11-28T06:15:13.598Z,0.00
2017-11-28T06:16:13.625Z,0.00
2017-11-28T06:18:06.992Z,0.00
2017-11-28T06:19:06.983Z,4.00
2017-11-28T06:21:00.409Z,4.00
2017-11-28T06:22:00.398Z,0.00
2017-11-28T06:23:53.781Z,4.00
2017-11-28T06:24:53.786Z,4.00
2017-11-28T06:26:47.152Z,4.00
2017-11-28T06:27:47.610Z,8.00
2017-11-28T06:29:40.783Z,12.00
2017-11-28T06:30:40.611Z,12.00
2017-11-28T06:32:34.102Z,20.00
2017-11-28T06:33:34.145Z,24.00
2017-11-28T06:35:27.596Z,28.00
2017-11-28T06:36:27.651Z,36.00
2017-11-28T06:38:20.989Z,44.00
2017-11-28T06:39:20.726Z,48.00
2017-11-28T06:41:14.250Z,60.00
2017-11-28T06:42:14.394Z,68.00
2017-11-28T06:44:07.687Z,84.00
2017-11-28T06:45:07.633Z,92.00
2017-11-28T06:47:01.046Z,108.00
2017-11-28T06:48:00.962Z,116.00
2017-11-28T06:49:54.615Z,132.00
2017-11-28T06:50:54.321Z,140.00
2017-11-28T06:52:48.899Z,160.00
2017-11-28T06:53:48.759Z,168.00
2017-11-28T06:55:42.235Z,192.00
2017-11-28T06:56:42.161Z,204.00
2017-11-28T06:58:35.562Z,228.00
2017-11-28T06:59:35.542Z,240.00
2017-11-28T07:01:28.983Z,260.00
2017-11-28T07:02:28.946Z,280.00
2017-11-28T07:04:23.362Z,324.00
2017-11-28T07:05:23.406Z,344.00
2017-11-28T07:07:17.829Z,376.00
2017-11-28T07:08:17.760Z,392.00
2017-11-28T07:10:12.306Z,424.00
2017-11-28T07:11:12.169Z,440.00
2017-11-28T07:13:05.703Z,460.00
2017-11-28T07:14:05.848Z,468.00
2017-11-28T07:16:00.067Z,476.00
2017-11-28T07:17:00.082Z,472.00
2017-11-28T07:18:53.354Z,468.00
2017-11-28T07:19:53.359Z,472.00
2017-11-28T07:21:47.801Z,476.00
2017-11-28T07:22:47.872Z,484.00
2017-11-28T07:24:42.178Z,496.00
2017-11-28T07:25:42.054Z,504.00
2017-11-28T07:27:36.675Z,556.00
2017-11-28T07:28:36.670Z,592.00
2017-11-28T07:30:29.991Z,640.00
2017-11-28T07:31:30.196Z,648.00
2017-11-28T07:33:23.248Z,676.00
2017-11-28T07:34:23.654Z,684.00
2017-11-28T07:36:16.805Z,708.00
2017-11-28T07:37:17.025Z,724.00
2017-11-28T07:39:10.389Z,740.00
2017-11-28T07:40:10.129Z,740.00
2017-11-28T07:42:04.629Z,760.00
2017-11-28T07:43:04.603Z,800.00
2017-11-28T07:44:58.132Z,924.00
2017-11-28T07:45:57.860Z,1000.00
2017-11-28T07:47:52.186Z,1112.00
2017-11-28T07:48:52.435Z,1160.00
2017-11-28T07:50:53.871Z,1292.00
2017-11-28T07:51:45.560Z,1348.00
2017-11-28T07:53:40.047Z,1432.00
2017-11-28T07:54:40.129Z,1440.00
2017-11-28T07:56:33.741Z,1496.00
2017-11-28T07:57:34.290Z,1540.00
2017-11-28T07:59:27.177Z,1620.00
2017-11-28T08:00:26.921Z,1652.00
2017-11-28T08:02:21.290Z,1692.00
2017-11-28T08:03:21.290Z,1720.00
2017-11-28T08:05:15.790Z,1748.00
2017-11-28T08:06:15.750Z,1748.00
2017-11-28T08:08:09.085Z,1760.00
2017-11-28T08:09:09.383Z,1752.00
2017-11-28T08:11:03.456Z,1784.00
2017-11-28T08:12:03.417Z,1792.00
2017-11-28T08:13:57.887Z,1796.00
2017-11-28T08:14:57.850Z,1780.00
2017-11-28T08:16:52.354Z,1784.00
2017-11-28T08:17:52.280Z,1836.00
2017-11-28T08:19:45.702Z,1876.00
2017-11-28T08:20:45.497Z,1924.00
2017-11-28T08:22:40.043Z,1988.00
2017-11-28T08:23:40.186Z,1936.00
2017-11-28T08:25:34.561Z,1732.00
2017-11-28T08:26:34.453Z,1676.00
2017-11-28T08:28:29.305Z,1568.00
2017-11-28T08:29:28.695Z,1608.00
2017-11-28T08:31:22.135Z,1660.00
2017-11-28T08:32:22.144Z,1768.00
2017-11-28T08:34:16.571Z,1644.00
2017-11-28T08:35:16.510Z,1564.00
2017-11-28T08:37:09.918Z,1548.00
2017-11-28T08:38:09.982Z,1644.00
2017-11-28T08:40:03.382Z,1684.00
2017-11-28T08:41:03.359Z,1788.00
2017-11-28T08:42:57.787Z,2020.00
2017-11-28T08:43:57.766Z,2092.00
2017-11-28T08:45:51.069Z,2088.00
2017-11-28T08:46:51.072Z,2036.00
2017-11-28T08:48:44.474Z,1972.00
2017-11-28T08:49:44.553Z,1956.00
2017-11-28T08:51:37.932Z,1960.00
2017-11-28T08:52:37.870Z,2028.00
2017-11-28T08:54:31.255Z,2136.00
2017-11-28T08:55:31.293Z,2232.00
2017-11-28T08:57:25.657Z,2376.00
2017-11-28T08:58:25.664Z,2416.00
2017-11-28T09:00:19.049Z,2472.00
2017-11-28T09:01:19.025Z,2480.00
2017-11-28T09:03:12.422Z,2384.00
2017-11-28T09:04:12.428Z,2348.00
2017-11-28T09:06:05.810Z,2304.00
2017-11-28T09:07:05.795Z,2300.00
2017-11-28T09:08:59.181Z,2248.00
2017-11-28T09:09:59.181Z,2228.00
2017-11-28T09:11:52.585Z,2168.00
2017-11-28T09:12:52.567Z,2176.00
2017-11-28T09:14:45.956Z,2152.00
2017-11-28T09:15:45.961Z,2132.00
2017-11-28T09:17:39.363Z,2104.00
2017-11-28T09:18:39.346Z,1996.00
2017-11-28T09:20:32.736Z,1976.00
2017-11-28T09:21:32.739Z,1864.00
2017-11-28T09:23:26.104Z,1956.00
2017-11-28T09:24:26.108Z,1960.00
2017-11-28T09:26:19.502Z,1928.00
2017-11-28T09:27:19.483Z,1904.00
2017-11-28T09:29:12.868Z,2104.00
2017-11-28T09:30:12.878Z,2096.00
2017-11-28T09:32:06.285Z,1956.00
2017-11-28T09:33:06.253Z,2028.00
2017-11-28T09:34:59.635Z,2224.00
2017-11-28T09:35:59.634Z,2220.00
2017-11-28T09:37:53.061Z,2252.00
2017-11-28T09:38:53.067Z,2284.00
2017-11-28T09:40:46.418Z,2288.00
2017-11-28T09:41:46.405Z,2260.00
2017-11-28T09:43:39.812Z,2320.00
2017-11-28T09:44:39.797Z,2336.00
2017-11-28T09:46:33.165Z,2420.00
2017-11-28T09:47:33.177Z,2484.00
2017-11-28T09:49:26.567Z,2568.00
2017-11-28T09:50:26.594Z,2636.00
2017-11-28T09:52:19.936Z,2736.00
2017-11-28T09:53:19.952Z,2752.00
2017-11-28T09:55:13.333Z,2904.00
2017-11-28T09:56:13.315Z,2900.00
2017-11-28T09:58:06.731Z,2896.00
2017-11-28T09:59:06.699Z,2904.00
2017-11-28T10:01:00.098Z,2788.00
2017-11-28T10:02:00.100Z,2868.00
2017-11-28T10:03:53.485Z,2832.00
2017-11-28T10:04:53.482Z,2772.00
2017-11-28T10:06:46.852Z,2692.00
2017-11-28T10:07:46.865Z,2716.00
2017-11-28T10:09:41.253Z,2672.00
2017-11-28T10:10:41.228Z,2800.00
2017-11-28T10:12:34.613Z,3012.00
2017-11-28T10:13:34.620Z,3020.00
2017-11-28T10:15:28.023Z,3040.00
2017-11-28T10:16:27.995Z,2948.00
2017-11-28T10:18:21.385Z,3224.00
2017-11-28T10:19:21.392Z,3280.00
2017-11-28T10:21:14.803Z,3392.00
2017-11-28T10:22:14.779Z,3108.00
2017-11-28T10:24:08.155Z,3068.00
2017-11-28T10:25:08.170Z,2660.00
2017-11-28T10:27:01.557Z,2848.00
2017-11-28T10:28:01.536Z,3320.00
2017-11-28T10:29:54.923Z,3132.00
2017-11-28T10:30:54.940Z,3200.00
2017-11-28T10:32:48.334Z,3156.00
2017-11-28T10:33:48.313Z,3136.00
2017-11-28T10:35:41.690Z,2984.00
2017-11-28T10:36:41.708Z,2940.00
2017-11-28T10:38:35.101Z,2912.00
2017-11-28T10:39:35.105Z,2832.00
2017-11-28T10:41:28.480Z,3184.00
2017-11-28T10:42:28.457Z,3160.00
2017-11-28T10:44:21.878Z,2828.00
2017-11-28T10:45:21.858Z,2780.00
2017-11-28T10:47:15.286Z,2436.00
2017-11-28T10:48:15.285Z,2816.00
2017-11-28T10:50:08.719Z,3088.00
2017-11-28T10:51:08.683Z,3124.00
2017-11-28T10:53:02.077Z,2732.00
2017-11-28T10:54:02.064Z,2380.00
2017-11-28T10:55:55.457Z,2976.00
2017-11-28T10:56:55.441Z,3116.00
2017-11-28T10:58:48.844Z,3544.00
2017-11-28T10:59:48.867Z,3140.00
2017-11-28T11:01:42.251Z,3460.00
2017-11-28T11:02:42.247Z,3584.00
2017-11-28T11:04:35.604Z,3308.00
2017-11-28T11:05:35.593Z,2932.00
2017-11-28T11:07:28.992Z,2764.00
2017-11-28T11:08:29.029Z,2556.00
2017-11-28T11:10:22.387Z,3396.00
2017-11-28T11:11:22.426Z,3148.00
2017-11-28T11:13:15.805Z,2932.00
2017-11-28T11:14:15.792Z,2996.00
2017-11-28T11:16:09.161Z,3172.00
2017-11-28T11:17:09.172Z,3108.00
2017-11-28T11:19:02.567Z,3120.00
2017-11-28T11:20:02.587Z,3308.00
2017-11-28T11:21:55.945Z,3168.00
2017-11-28T11:22:55.945Z,3400.00
2017-11-28T11:24:50.330Z,2880.00
2017-11-28T11:25:50.369Z,3580.00
2017-11-28T11:27:43.729Z,3464.00
2017-11-28T11:28:43.717Z,3604.00
2017-11-28T11:30:37.109Z,3668.00
2017-11-28T11:31:37.132Z,3592.00
2017-11-28T11:33:30.499Z,3184.00
2017-11-28T11:34:30.525Z,3324.00
2017-11-28T11:36:23.911Z,3184.00
2017-11-28T11:37:23.896Z,3432.00
2017-11-28T11:39:17.348Z,3232.00
2017-11-28T11:40:17.333Z,3520.00
2017-11-28T11:42:10.688Z,3580.00
2017-11-28T11:43:10.737Z,3640.00
2017-11-28T11:45:04.099Z,3760.00
2017-11-28T11:46:04.092Z,3864.00
2017-11-28T11:47:57.528Z,3740.00
2017-11-28T11:48:57.450Z,3644.00
2017-11-28T11:50:50.846Z,4020.00
2017-11-28T11:51:50.908Z,3676.00
2017-11-28T11:53:44.236Z,4820.00
2017-11-28T11:54:44.244Z,4540.00
2017-11-28T11:56:37.660Z,4880.00
2017-11-28T11:57:37.633Z,5032.00
2017-11-28T11:59:31.051Z,4896.00
2017-11-28T12:00:31.045Z,3976.00
2017-11-28T12:02:24.362Z,5132.00
2017-11-28T12:03:24.380Z,5928.00
2017-11-28T12:05:17.796Z,6148.00
2017-11-28T12:06:17.768Z,5724.00
2017-11-28T12:08:11.240Z,4952.00
2017-11-28T12:09:11.238Z,4604.00
2017-11-28T12:11:04.561Z,4776.00
2017-11-28T12:12:04.650Z,4276.00
2017-11-28T12:13:57.937Z,3772.00
2017-11-28T12:14:57.995Z,3376.00
2017-11-28T12:16:51.348Z,3760.00
2017-11-28T12:17:51.409Z,3880.00
2017-11-28T12:19:44.712Z,3708.00
2017-11-28T12:20:44.716Z,3692.00
2017-11-28T12:22:38.074Z,3956.00
2017-11-28T12:23:38.178Z,4004.00
2017-11-28T12:25:31.502Z,3904.00
2017-11-28T12:26:31.511Z,3844.00
2017-11-28T12:28:24.864Z,3904.00
2017-11-28T12:29:24.886Z,3772.00
2017-11-28T12:31:18.310Z,3952.00
2017-11-28T12:32:18.303Z,4080.00
2017-11-28T12:34:11.716Z,4008.00
2017-11-28T12:35:11.673Z,4000.00
2017-11-28T12:37:05.065Z,3668.00
2017-11-28T12:38:05.094Z,4244.00
2017-11-28T12:39:58.453Z,4292.00
2017-11-28T12:40:58.462Z,4204.00
2017-11-28T12:42:51.849Z,3668.00
2017-11-28T12:43:51.881Z,3712.00
2017-11-28T12:45:45.254Z,3548.00
2017-11-28T12:46:45.274Z,3376.00
2017-11-28T12:48:38.585Z,3572.00
2017-11-28T12:49:38.608Z,3552.00
2017-11-28T12:51:32.016Z,3520.00
2017-11-28T12:52:32.030Z,3440.00
2017-11-28T12:54:25.393Z,3300.00
2017-11-28T12:55:25.401Z,3156.00
2017-11-28T12:57:18.817Z,2928.00
2017-11-28T12:58:18.846Z,2944.00
2017-11-28T13:00:12.191Z,3120.00
2017-11-28T13:01:12.184Z,3076.00
2017-11-28T13:03:05.556Z,3100.00
2017-11-28T13:04:05.593Z,3056.00
2017-11-28T13:05:58.916Z,2880.00
2017-11-28T13:06:58.936Z,2560.00
2017-11-28T13:08:52.367Z,3084.00
2017-11-28T13:09:52.344Z,3236.00
2017-11-28T13:11:45.744Z,3144.00
2017-11-28T13:12:45.722Z,3184.00
2017-11-28T13:14:39.292Z,3208.00
2017-11-28T13:15:39.146Z,3256.00
2017-11-28T13:17:32.489Z,3092.00
2017-11-28T13:18:32.509Z,3152.00
2017-11-28T13:20:25.895Z,2884.00
2017-11-28T13:21:25.893Z,2768.00
2017-11-28T13:23:19.285Z,2724.00
2017-11-28T13:24:19.278Z,2660.00
2017-11-28T13:26:12.719Z,2796.00
2017-11-28T13:27:12.672Z,2872.00
2017-11-28T13:29:06.042Z,2860.00
2017-11-28T13:30:06.059Z,2764.00
2017-11-28T13:31:59.455Z,2748.00
2017-11-28T13:32:59.474Z,2752.00
2017-11-28T13:34:52.873Z,2520.00
2017-11-28T13:35:52.842Z,2404.00
2017-11-28T13:37:46.312Z,2320.00
2017-11-28T13:38:46.320Z,2168.00
2017-11-28T13:40:39.745Z,2044.00
2017-11-28T13:41:39.660Z,1984.00
2017-11-28T13:43:33.077Z,1944.00
2017-11-28T13:44:33.101Z,2028.00
2017-11-28T13:46:26.459Z,1924.00
2017-11-28T13:47:26.450Z,1916.00
2017-11-28T13:49:19.816Z,1824.00
2017-11-28T13:50:19.832Z,1720.00
2017-11-28T13:52:13.263Z,1652.00
2017-11-28T13:53:13.224Z,1552.00
2017-11-28T13:55:06.593Z,1484.00
2017-11-28T13:56:06.582Z,1548.00
2017-11-28T13:57:59.983Z,1452.00
2017-11-28T13:58:59.979Z,1592.00
2017-11-28T14:00:53.342Z,1532.00
2017-11-28T14:01:53.402Z,1496.00
2017-11-28T14:03:46.779Z,1492.00
2017-11-28T14:04:46.749Z,1400.00
2017-11-28T14:06:40.162Z,1364.00
2017-11-28T14:07:40.158Z,1356.00
2017-11-28T14:09:33.539Z,1356.00
2017-11-28T14:10:33.545Z,1372.00
2017-11-28T14:12:26.891Z,1224.00
2017-11-28T14:13:26.929Z,1228.00
2017-11-28T14:15:20.277Z,1336.00
2017-11-28T14:16:20.412Z,1280.00
2017-11-28T14:18:13.698Z,1184.00
2017-11-28T14:19:13.685Z,1144.00
2017-11-28T14:21:07.052Z,1100.00
2017-11-28T14:22:07.062Z,1100.00
2017-11-28T14:24:00.440Z,1076.00
2017-11-28T14:25:00.451Z,1136.00
2017-11-28T14:26:54.022Z,1124.00
2017-11-28T14:27:53.964Z,1052.00
2017-11-28T14:29:47.442Z,1040.00
2017-11-28T14:30:47.416Z,1068.00
2017-11-28T14:32:41.830Z,952.00
2017-11-28T14:33:41.689Z,884.00
2017-11-28T14:35:35.064Z,956.00
2017-11-28T14:36:35.066Z,824.00
2017-11-28T14:38:28.455Z,816.00
2017-11-28T14:39:28.450Z,872.00
2017-11-28T14:41:21.889Z,792.00
2017-11-28T14:42:21.856Z,772.00
2017-11-28T14:44:16.257Z,756.00
2017-11-28T14:45:16.275Z,716.00
2017-11-28T14:47:10.677Z,684.00
2017-11-28T14:48:10.719Z,672.00
2017-11-28T14:50:03.996Z,624.00
2017-11-28T14:51:04.002Z,596.00
2017-11-28T14:52:57.387Z,576.00
2017-11-28T14:53:57.415Z,564.00
2017-11-28T14:55:51.832Z,488.00
2017-11-28T14:56:51.774Z,488.00
2017-11-28T14:58:45.319Z,448.00
2017-11-28T14:59:45.528Z,404.00
2017-11-28T15:01:38.583Z,372.00
2017-11-28T15:02:38.550Z,396.00
2017-11-28T15:04:31.917Z,348.00
2017-11-28T15:05:31.991Z,352.00
2017-11-28T15:07:25.385Z,332.00
2017-11-28T15:08:25.423Z,344.00
2017-11-28T15:10:18.754Z,376.00
2017-11-28T15:11:18.717Z,380.00
2017-11-28T15:13:12.230Z,384.00
2017-11-28T15:14:12.120Z,344.00
2017-11-28T15:16:05.510Z,344.00
2017-11-28T15:17:05.518Z,312.00
2017-11-28T15:18:59.010Z,276.00
2017-11-28T15:19:58.944Z,264.00
2017-11-28T15:21:53.344Z,212.00
2017-11-28T15:22:53.325Z,208.00
2017-11-28T15:24:47.123Z,188.00
2017-11-28T15:25:46.706Z,176.00
2017-11-28T15:27:40.124Z,148.00
2017-11-28T15:28:40.074Z,132.00
2017-11-28T15:30:33.542Z,112.00
2017-11-28T15:31:33.444Z,96.00
2017-11-28T15:33:27.863Z,80.00
2017-11-28T15:34:27.865Z,76.00
2017-11-28T15:36:21.328Z,64.00
2017-11-28T15:37:21.273Z,56.00
2017-11-28T15:39:15.697Z,44.00
2017-11-28T15:40:15.659Z,36.00
2017-11-28T15:42:10.093Z,24.00
2017-11-28T15:43:10.098Z,20.00
2017-11-28T15:45:03.511Z,20.00
2017-11-28T15:46:03.542Z,16.00
2017-11-28T15:47:56.890Z,8.00
2017-11-28T15:48:56.879Z,8.00
2017-11-28T15:50:50.281Z,8.00
2017-11-28T15:51:50.276Z,4.00
2017-11-28T15:53:43.641Z,4.00
2017-11-28T15:54:43.649Z,4.00
2017-11-28T15:56:37.118Z,4.00
2017-11-28T15:57:37.021Z,4.00
2017-11-28T15:59:30.425Z,0.00
2017-11-28T16:00:30.382Z,0.00
2017-11-28T16:02:23.766Z,0.00
2017-11-28T16:03:23.738Z,0.00
2017-11-28T16:05:18.246Z,0.00
2017-11-28T16:06:18.167Z,0.00
2017-11-28T16:08:11.584Z,0.00
2017-11-28T16:09:11.561Z,0.00
2017-11-28T16:11:04.984Z,0.00
2017-11-28T16:12:05.030Z,0.00
2017-11-28T16:13:58.388Z,0.00
2017-11-28T16:14:58.452Z,0.00
2017-11-28T16:16:52.774Z,0.00
2017-11-28T16:17:52.753Z,0.00
2017-11-28T16:19:47.173Z,0.00
2017-11-28T16:20:47.137Z,0.00
2017-11-28T16:22:40.604Z,0.00
2017-11-28T16:23:40.499Z,0.00
2017-11-28T16:25:33.971Z,0.00
2017-11-28T16:26:33.882Z,0.00
2017-11-28T16:28:27.410Z,0.00
2017-11-28T16:29:27.314Z,0.00
2017-11-28T16:31:20.685Z,0.00
2017-11-28T16:32:20.741Z,0.00
2017-11-28T16:34:14.101Z,0.00
2017-11-28T16:35:14.084Z,0.00
2017-11-28T16:37:08.494Z,0.00
2017-11-28T16:38:08.489Z,0.00
2017-11-28T16:40:01.885Z,0.00
2017-11-28T16:41:01.878Z,0.00
2017-11-28T16:42:55.258Z,0.00
2017-11-28T16:43:55.266Z,0.00
2017-11-28T16:45:48.626Z,0.00
2017-11-28T16:46:48.657Z,0.00
2017-11-28T16:48:42.009Z,0.00
2017-11-28T16:49:42.008Z,0.00
2017-11-28T16:51:35.410Z,0.00
2017-11-28T16:52:35.365Z,0.00
2017-11-28T16:54:28.753Z,0.00
2017-11-28T16:55:28.798Z,0.00
2017-11-28T16:57:22.141Z,0.00
2017-11-28T16:58:22.198Z,0.00
2017-11-28T17:00:16.593Z,0.00
2017-11-28T17:01:16.526Z,0.00
2017-11-28T17:03:09.930Z,0.00
2017-11-28T17:04:10.024Z,0.00
2017-11-28T17:06:03.350Z,0.00
2017-11-28T17:07:03.310Z,0.00
2017-11-28T17:08:56.790Z,0.00
2017-11-28T17:09:56.689Z,0.00
2017-11-28T17:11:51.085Z,0.00
2017-11-28T17:12:51.118Z,0.00
2017-11-28T17:14:44.568Z,0.00
2017-11-28T17:15:44.495Z,0.00
2017-11-28T17:17:38.834Z,0.00
2017-11-28T17:18:38.862Z,0.00
2017-11-28T17:20:32.215Z,0.00
2017-11-28T17:21:32.270Z,0.00
2017-11-28T17:23:25.649Z,0.00
2017-11-28T17:24:25.632Z,0.00
2017-11-28T17:26:19.276Z,0.00
2017-11-28T17:27:19.026Z,0.00
2017-11-28T17:29:12.397Z,0.00
2017-11-28T17:30:12.359Z,0.00
2017-11-28T17:32:05.856Z,0.00
2017-11-28T17:33:05.763Z,0.00
2017-11-28T17:34:59.261Z,0.00
2017-11-28T17:35:59.248Z,0.00
2017-11-28T17:37:52.587Z,0.00
2017-11-28T17:38:52.637Z,0.00
2017-11-28T17:40:45.947Z,0.00
2017-11-28T17:41:45.955Z,0.00
2017-11-28T17:43:39.347Z,0.00
2017-11-28T17:44:39.342Z,0.00
2017-11-28T17:46:32.722Z,0.00
2017-11-28T17:47:32.745Z,0.00
2017-11-28T17:49:27.252Z,0.00
2017-11-28T17:50:27.121Z,0.00
2017-11-28T17:52:20.464Z,0.00
2017-11-28T17:53:20.461Z,0.00
2017-11-28T17:55:13.873Z,0.00
2017-11-28T17:56:13.853Z,0.00
2017-11-28T17:58:07.255Z,0.00
2017-11-28T17:59:07.309Z,0.00
2017-11-28T18:01:00.644Z,0.00
2017-11-28T18:02:00.637Z,0.00
2017-11-28T18:03:54.038Z,0.00
2017-11-28T18:04:54.052Z,0.00
2017-11-28T18:06:47.440Z,0.00
2017-11-28T18:07:47.422Z,0.00
2017-11-28T18:09:40.924Z,0.00
2017-11-28T18:10:40.805Z,0.00
2017-11-28T18:12:34.200Z,0.00
2017-11-28T18:13:34.203Z,0.00
2017-11-28T18:15:27.593Z,0.00
2017-11-28T18:16:27.880Z,0.00
2017-11-28T18:18:20.985Z,0.00
2017-11-28T18:19:20.989Z,0.00
2017-11-28T18:21:14.366Z,0.00
2017-11-28T18:22:14.355Z,0.00
2017-11-28T18:24:07.798Z,0.00
2017-11-28T18:25:07.755Z,0.00